Ghardaia, Algeria
Current Conditions -  °F | °C
As of 1:00 AM on Thursday 29 Jan 2015 (Local Time) from DAUG Reporting Station
Clear Clear  
Wind Chill:   Ceiling: Unl
Heat Index:   Visibility: 6mi
Dew Point:   Wind: 8mph
Humidity: 54%   Direction: 320°NW
Pressure: 30.18"   Gusts: NA
Location:  32.49°N, 3.68°E
Report Text: DAUG 290000Z 32007KT CAVOK 09/M00 Q1022
Loading
Personal Weather Stations






























Interactive Weather Map New forecast layout! Learn more

10-Day Weather Forecast

Advertisements
Track Severe Weather on mobile